Time;durP1;ratioP1;P1;durP2;ratioP2;P2;SDS_P1;SDS_P2;PMS_P1;PMS_P2;Temp;Humidity;BMP_temperature;BMP_pressure;BME280_temperature;BME280_humidity;BME280_pressure;Samples;Min_cycle;Max_cycle;Signal;HPM_P1;HPM_P2
2021/09/13 00:01:31;;;;;;;5.10;4.00;;;;;;;14.91;100.00;101040.19;4989976;28;20730;-71
2021/09/13 00:03:57;;;;;;;5.88;4.20;;;;;;;14.86;100.00;101043.81;4991854;28;20184;-70
2021/09/13 00:06:29;;;;;;;6.75;4.60;;;;;;;14.77;100.00;101034.63;4985843;28;20226;-72
2021/09/13 00:08:57;;;;;;;4.77;4.10;;;;;;;14.68;100.00;101041.81;4992070;28;20276;-71
2021/09/13 00:11:27;;;;;;;4.63;3.95;;;;;;;14.63;100.00;101049.25;4980703;28;20272;-71
2021/09/13 00:13:53;;;;;;;5.00;3.90;;;;;;;14.63;100.00;101049.25;5007762;28;20178;-71
2021/09/13 00:16:22;;;;;;;5.90;3.70;;;;;;;14.52;100.00;101046.91;4991363;28;20245;-71
2021/09/13 00:18:50;;;;;;;4.43;4.10;;;;;;;14.54;100.00;101040.06;5007155;28;20196;-70
2021/09/13 00:21:16;;;;;;;4.32;4.03;;;;;;;14.66;100.00;101043.22;5007129;28;20588;-71
2021/09/13 00:23:44;;;;;;;5.47;4.68;;;;;;;14.68;100.00;101039.06;5007930;28;20184;-71
2021/09/13 00:26:12;;;;;;;5.22;4.70;;;;;;;14.80;100.00;101038.72;4991101;28;20221;-71
2021/09/13 00:28:41;;;;;;;6.80;4.73;;;;;;;14.89;100.00;101039.66;5007405;28;20540;-71
2021/09/13 00:31:08;;;;;;;6.37;4.87;;;;;;;14.98;100.00;101040.66;4991077;28;20217;-72
2021/09/13 00:33:36;;;;;;;6.22;4.93;;;;;;;15.01;100.00;101044.44;4991623;28;20265;-72
2021/09/13 00:36:06;;;;;;;8.83;5.50;;;;;;;15.01;100.00;101041.72;4974936;28;20228;-72
2021/09/13 00:38:34;;;;;;;6.03;4.70;;;;;;;14.89;100.00;101040.50;4992333;28;20185;-71
2021/09/13 00:41:00;;;;;;;5.00;4.60;;;;;;;14.94;100.00;101039.63;5018172;28;20229;-71
2021/09/13 00:43:30;;;;;;;5.20;4.63;;;;;;;15.03;100.00;101042.22;4991590;28;20329;-71
2021/09/13 00:45:57;;;;;;;5.70;4.67;;;;;;;14.89;100.00;101042.41;4990654;28;20217;-71
2021/09/13 00:48:24;;;;;;;4.50;4.10;;;;;;;14.80;100.00;101041.44;4991064;28;20213;-71
2021/09/13 00:50:52;;;;;;;7.10;4.07;;;;;;;14.86;100.00;101043.00;4990793;28;20236;-71
2021/09/13 00:53:21;;;;;;;4.57;4.07;;;;;;;14.91;100.00;101041.03;4991327;28;20682;-71
2021/09/13 00:55:47;;;;;;;4.83;4.30;;;;;;;14.99;100.00;101038.44;4990440;28;20232;-70
2021/09/13 00:58:12;;;;;;;4.93;4.30;;;;;;;15.04;100.00;101041.13;4990727;28;20186;-70
2021/09/13 01:00:40;;;;;;;4.65;4.22;;;;;;;15.10;100.00;101039.97;4989951;28;20263;-70
2021/09/13 01:03:08;;;;;;;7.90;4.40;;;;;;;14.88;100.00;101036.13;4987449;28;20580;-70
2021/09/13 01:05:36;;;;;;;5.47;4.37;;;;;;;14.74;100.00;101039.84;4974504;28;20221;-71
2021/09/13 01:08:02;;;;;;;6.97;4.33;;;;;;;14.64;100.00;101043.50;4947827;28;20173;-71
2021/09/13 01:10:28;;;;;;;4.17;3.77;;;;;;;14.69;100.00;101045.38;5006652;28;20255;-71
2021/09/13 01:12:59;;;;;;;4.37;4.00;;;;;;;14.79;100.00;101042.53;4971707;28;20657;-70
2021/09/13 01:15:27;;;;;;;4.87;3.93;;;;;;;14.70;100.00;101047.00;4972507;28;20197;-71
2021/09/13 01:17:53;;;;;;;6.10;4.18;;;;;;;14.63;100.00;101038.31;4974964;28;20242;-71
2021/09/13 01:20:22;;;;;;;5.50;3.90;;;;;;;14.47;100.00;101047.78;4990001;28;20721;-70
2021/09/13 01:22:54;;;;;;;5.78;4.22;;;;;;;14.49;100.00;101034.66;4990519;28;20197;-71
2021/09/13 01:25:23;;;;;;;4.53;4.10;;;;;;;14.47;100.00;101041.50;4990149;28;20193;-71
2021/09/13 01:27:54;;;;;;;4.90;4.40;;;;;;;14.36;100.00;101040.78;4990200;28;20399;-70
2021/09/13 01:30:23;;;;;;;5.33;4.53;;;;;;;14.44;100.00;101039.34;4990131;28;20229;-71
2021/09/13 01:32:51;;;;;;;6.77;4.80;;;;;;;14.37;100.00;101039.66;5006880;28;20204;-70
2021/09/13 01:35:22;;;;;;;5.07;4.27;;;;;;;14.33;100.00;101035.88;4990376;28;20192;-71
2021/09/13 01:37:50;;;;;;;7.07;4.20;;;;;;;14.31;100.00;101035.38;4989939;28;20272;-71
2021/09/13 01:40:18;;;;;;;5.00;4.40;;;;;;;14.28;100.00;101035.13;4989619;28;20198;-70
2021/09/13 01:42:48;;;;;;;4.67;3.83;;;;;;;14.34;100.00;101029.34;4990437;28;20683;-71
2021/09/13 01:45:17;;;;;;;5.57;4.27;;;;;;;14.21;100.00;101031.88;4974318;28;20182;-70
2021/09/13 01:47:45;;;;;;;6.47;4.00;;;;;;;14.18;100.00;101034.41;4970694;28;20252;-70
2021/09/13 01:50:15;;;;;;;6.70;4.40;;;;;;;14.23;100.00;101025.06;4970375;28;20210;-71
2021/09/13 01:52:41;;;;;;;5.07;4.10;;;;;;;14.27;100.00;101028.84;4976716;28;20625;-71
2021/09/13 01:55:07;;;;;;;6.00;4.40;;;;;;;14.27;100.00;101028.84;4957475;28;20169;-71
2021/09/13 01:57:32;;;;;;;6.03;4.17;;;;;;;14.27;100.00;101023.38;4956386;28;21158;-70
2021/09/13 02:00:01;;;;;;;4.93;4.43;;;;;;;14.42;100.00;101028.69;5009647;28;20185;-71
2021/09/13 02:02:28;;;;;;;6.37;4.20;;;;;;;14.52;100.00;101042.25;5006526;28;20232;-71
2021/09/13 02:04:57;;;;;;;7.57;4.15;;;;;;;14.50;100.00;101040.94;4991025;28;20188;-71
2021/09/13 02:07:22;;;;;;;5.77;4.33;;;;;;;14.63;100.00;101036.41;5006940;28;20715;-71
2021/09/13 02:09:56;;;;;;;8.07;4.20;;;;;;;14.73;100.00;101038.22;4974849;28;20219;-72
2021/09/13 02:12:24;;;;;;;5.50;4.53;;;;;;;14.80;100.00;101044.19;4990569;28;20233;-71
2021/09/13 02:14:52;;;;;;;5.40;4.40;;;;;;;14.86;100.00;101032.06;4992362;28;20256;-72
2021/09/13 02:17:18;;;;;;;5.67;4.07;;;;;;;14.89;100.00;101034.19;4990562;28;20244;-72
2021/09/13 02:19:50;;;;;;;4.57;4.17;;;;;;;14.92;100.00;101041.84;4990720;28;20512;-71
2021/09/13 02:22:16;;;;;;;6.63;4.07;;;;;;;14.91;100.00;101045.66;4974751;28;20225;-71
2021/09/13 02:24:42;;;;;;;5.90;4.20;;;;;;;14.92;100.00;101050.03;4970940;28;20186;-71
2021/09/13 02:27:07;;;;;;;5.53;3.55;;;;;;;14.82;100.00;101055.63;4970716;28;20875;-71
2021/09/13 02:29:37;;;;;;;7.33;4.13;;;;;;;14.89;100.00;101053.34;4982145;28;20196;-72
2021/09/13 02:32:04;;;;;;;4.93;3.80;;;;;;;15.18;100.00;101053.06;4989327;28;20795;-71
2021/09/13 02:34:34;;;;;;;5.37;3.83;;;;;;;15.18;100.00;101053.06;4958925;28;20441;-72
2021/09/13 02:37:00;;;;;;;4.95;3.47;;;;;;;15.05;100.00;101059.19;4989506;28;20232;-72
2021/09/13 02:39:26;;;;;;;4.30;3.60;;;;;;;15.19;100.00;101053.84;4989473;28;20185;-72
2021/09/13 02:41:52;;;;;;;5.32;3.55;;;;;;;15.03;100.00;101047.69;4976080;28;20233;-72
2021/09/13 02:44:23;;;;;;;5.50;3.83;;;;;;;15.22;100.00;101048.63;4977597;28;20220;-72
2021/09/13 02:46:48;;;;;;;6.40;4.00;;;;;;;15.12;100.00;101050.63;4977597;28;20241;-72
2021/09/13 02:49:16;;;;;;;6.10;3.60;;;;;;;15.15;100.00;101053.63;4984073;28;20186;-72
2021/09/13 02:51:48;;;;;;;4.53;3.60;;;;;;;15.09;100.00;101054.78;4976824;28;20253;-72
2021/09/13 02:54:14;;;;;;;4.85;3.58;;;;;;;15.07;100.00;101056.97;4971429;28;20268;-73
2021/09/13 02:56:43;;;;;;;7.47;3.72;;;;;;;15.14;100.00;101056.66;4992810;28;20236;-72
2021/09/13 02:59:08;;;;;;;9.55;4.00;;;;;;;15.14;100.00;101054.72;4989465;28;20190;-73
2021/09/13 03:01:34;;;;;;;5.37;3.60;;;;;;;15.09;100.00;101062.97;4973495;28;20230;-72
2021/09/13 03:04:03;;;;;;;6.00;4.15;;;;;;;15.19;100.00;101067.53;4967878;28;20466;-72
2021/09/13 03:06:34;;;;;;;7.95;4.43;;;;;;;15.17;100.00;101067.03;4976704;28;20221;-72
2021/09/13 03:08:59;;;;;;;6.20;3.80;;;;;;;15.23;100.00;101065.84;4974569;28;20182;-72
2021/09/13 03:11:33;;;;;;;7.63;4.10;;;;;;;15.37;100.00;101069.50;4977142;28;20322;-71
2021/09/13 03:13:59;;;;;;;5.30;4.00;;;;;;;15.31;100.00;101071.50;4990200;28;20751;-71
2021/09/13 03:16:32;;;;;;;7.97;4.13;;;;;;;15.38;100.00;101076.59;4973304;28;20222;-72
2021/09/13 03:18:59;;;;;;;7.88;4.50;;;;;;;15.37;100.00;101073.06;4977563;28;20214;-71
2021/09/13 03:21:27;;;;;;;5.50;4.17;;;;;;;15.55;100.00;101064.06;4992517;28;20332;-71
2021/09/13 03:23:54;;;;;;;5.28;4.03;;;;;;;15.47;100.00;101065.50;4992872;28;20186;-71
2021/09/13 03:26:21;;;;;;;8.65;4.10;;;;;;;15.65;100.00;101066.66;4991998;28;20217;-72
2021/09/13 03:28:47;;;;;;;6.00;4.45;;;;;;;15.60;100.00;101061.22;5008672;28;20189;-72
2021/09/13 03:31:15;;;;;;;7.55;4.40;;;;;;;15.54;100.00;101051.47;4991929;28;20221;-71
2021/09/13 03:33:42;;;;;;;6.78;4.40;;;;;;;15.66;100.00;101062.78;4992956;28;20717;-72
2021/09/13 03:36:07;;;;;;;7.55;4.30;;;;;;;15.62;100.00;101059.84;4992105;28;20217;-72
2021/09/13 03:38:38;;;;;;;6.10;4.00;;;;;;;15.43;100.00;101060.94;4992150;28;20186;-72
2021/09/13 03:41:09;;;;;;;5.90;4.32;;;;;;;15.45;100.00;101059.50;4976361;28;20222;-72
2021/09/13 03:43:41;;;;;;;7.50;4.85;;;;;;;15.63;100.00;101060.66;4976785;28;20698;-72
2021/09/13 03:46:06;;;;;;;7.28;4.75;;;;;;;15.58;100.00;101057.97;4974525;28;20249;-72
2021/09/13 03:48:41;;;;;;;7.88;4.50;;;;;;;15.60;100.00;101055.75;4976891;28;20284;-72
2021/09/13 03:51:07;;;;;;;11.00;5.40;;;;;;;15.54;100.00;101046.00;4973759;28;20228;-72
2021/09/13 03:53:35;;;;;;;7.15;4.97;;;;;;;15.51;100.00;101058.34;4975555;28;20285;-72
2021/09/13 03:56:05;;;;;;;8.27;5.53;;;;;;;15.68;100.00;101069.63;4976123;28;20290;-72
2021/09/13 03:58:34;;;;;;;9.43;5.50;;;;;;;15.57;100.00;101056.38;4991861;28;20221;-72
2021/09/13 04:01:00;;;;;;;9.48;5.80;;;;;;;15.61;100.00;101058.22;4987209;28;20221;-72
2021/09/13 04:03:50;;;;;;;14.15;6.28;;;;;;;15.66;100.00;101060.03;4991563;28;20388;-73
2021/09/13 04:06:25;;;;;;;8.30;5.78;;;;;;;15.80;100.00;101059.84;4968548;28;20231;-72
2021/09/13 04:12:28;;;;;;;9.60;6.10;;;;;;;15.85;100.00;101051.53;4976736;28;20225;-72
2021/09/13 04:15:12;;;;;;;11.70;6.82;;;;;;;15.83;100.00;101044.75;4990202;28;20544;-71
2021/09/13 04:18:04;;;;;;;14.77;6.95;;;;;;;15.74;100.00;101056.66;4971609;28;20194;-71
2021/09/13 04:21:01;;;;;;;11.52;6.75;;;;;;;15.69;100.00;101052.06;4995090;28;20221;-71
2021/09/13 04:23:59;;;;;;;9.60;6.97;;;;;;;15.66;100.00;101049.09;4967418;28;20538;-71
2021/09/13 04:26:33;;;;;;;11.98;7.28;;;;;;;15.77;100.00;101041.25;4990382;28;20224;-72
2021/09/13 04:29:35;;;;;;;13.73;7.28;;;;;;;15.66;100.00;101043.59;5006696;28;20236;-72
2021/09/13 04:32:20;;;;;;;14.23;7.45;;;;;;;15.74;100.00;101048.44;4971581;28;20230;-71
2021/09/13 04:35:05;;;;;;;14.60;7.80;;;;;;;15.68;100.00;101049.63;4989211;28;20244;-71
2021/09/13 04:37:59;;;;;;;13.68;7.57;;;;;;;15.75;100.00;101039.09;4987111;28;20220;-71
2021/09/13 04:40:46;;;;;;;12.95;7.82;;;;;;;15.71;100.00;101052.56;5004570;28;20317;-72
2021/09/13 04:43:45;;;;;;;12.80;8.20;;;;;;;15.74;100.00;101051.19;5002077;28;20197;-72
2021/09/13 04:46:31;;;;;;;13.35;8.23;;;;;;;15.88;100.00;101050.97;4991113;28;20236;-72
2021/09/13 04:49:24;;;;;;;12.85;8.25;;;;;;;15.76;100.00;101055.25;4991142;28;20189;-73
2021/09/13 04:51:59;;;;;;;17.65;9.35;;;;;;;15.81;100.00;101064.22;4991042;28;20319;-73
2021/09/13 04:54:39;;;;;;;13.20;9.35;;;;;;;15.84;100.00;101058.16;4991570;28;20564;-72
2021/09/13 04:57:06;;;;;;;15.55;9.35;;;;;;;15.87;100.00;101048.50;4974383;28;20236;-71
2021/09/13 04:59:31;;;;;;;18.13;10.73;;;;;;;15.76;100.00;101049.78;4990507;28;20178;-71
2021/09/13 05:01:59;;;;;;;18.92;10.70;;;;;;;15.75;100.00;101047.31;4990765;28;20316;-74
2021/09/13 05:04:27;;;;;;;18.60;10.68;;;;;;;15.88;100.00;101053.69;4974901;28;20686;-73
2021/09/13 05:06:55;;;;;;;14.40;10.18;;;;;;;15.84;100.00;101055.41;4990971;28;20770;-73
2021/09/13 05:09:21;;;;;;;15.82;10.43;;;;;;;15.78;100.00;101059.31;4974502;28;20643;-73
2021/09/13 05:11:46;;;;;;;15.35;10.75;;;;;;;15.86;100.00;101061.41;4990379;28;20217;-72
2021/09/13 05:14:18;;;;;;;19.52;11.23;;;;;;;15.84;100.00;101055.41;4975396;28;20188;-72
2021/09/13 05:16:43;;;;;;;16.52;9.95;;;;;;;15.92;100.00;101057.47;4988538;28;20249;-71
2021/09/13 05:19:13;;;;;;;22.85;12.30;;;;;;;15.94;100.00;101057.19;4972204;28;20213;-72
2021/09/13 05:21:40;;;;;;;18.85;11.50;;;;;;;16.01;100.00;101065.84;4980683;28;20718;-72
2021/09/13 05:24:11;;;;;;;20.52;12.50;;;;;;;16.00;100.00;101072.41;4975179;28;20733;-72
2021/09/13 05:26:43;;;;;;;17.92;13.27;;;;;;;15.87;100.00;101073.97;4971517;28;20226;-73
2021/09/13 05:29:08;;;;;;;17.67;12.55;;;;;;;15.81;100.00;101079.84;4974173;28;20228;-72
2021/09/13 05:31:37;;;;;;;18.38;12.05;;;;;;;15.87;100.00;101073.97;4991545;28;20228;-71
2021/09/13 05:34:11;;;;;;;22.98;12.60;;;;;;;16.01;100.00;101074.88;4972719;28;20184;-72
2021/09/13 05:36:37;;;;;;;17.63;12.00;;;;;;;15.95;100.00;101087.03;4985158;28;20280;-72
2021/09/13 05:39:03;;;;;;;24.60;13.77;;;;;;;16.09;100.00;101074.19;4989379;28;20647;-68
2021/09/13 05:41:48;;;;;;;17.92;12.40;;;;;;;16.02;100.00;101086.63;4989923;28;20230;-68
2021/09/13 05:44:15;;;;;;;14.88;11.98;;;;;;;16.11;100.00;101085.66;5007239;28;20207;-71
2021/09/13 05:46:46;;;;;;;15.93;12.15;;;;;;;15.89;100.00;101085.44;4990161;28;20280;-71
2021/09/13 05:49:14;;;;;;;19.20;13.05;;;;;;;15.93;100.00;101093.91;4990418;28;20209;-71
2021/09/13 05:51:50;;;;;;;17.48;12.45;;;;;;;16.02;100.00;101087.44;4988695;28;20245;-73
2021/09/13 05:54:22;;;;;;;21.35;12.82;;;;;;;16.06;100.00;101080.28;4998650;28;20598;-71
2021/09/13 05:56:53;;;;;;;16.52;12.90;;;;;;;16.00;100.00;101089.66;4990271;28;20222;-72
2021/09/13 05:59:21;;;;;;;18.02;12.30;;;;;;;16.20;100.00;101081.16;4989857;28;20189;-70
2021/09/13 06:01:48;;;;;;;18.17;11.98;;;;;;;16.28;100.00;101092.28;4972780;28;20217;-72
2021/09/13 06:04:13;;;;;;;17.35;11.30;;;;;;;16.32;100.00;101095.25;4970542;28;20186;-71
2021/09/13 06:06:46;;;;;;;14.77;12.25;;;;;;;16.13;100.00;101091.66;4988506;28;20252;-71
2021/09/13 06:09:12;;;;;;;15.43;11.18;;;;;;;16.41;100.00;101091.53;4978600;28;20202;-73
2021/09/13 06:11:39;;;;;;;17.48;12.45;;;;;;;16.46;100.00;101101.56;4957906;28;20236;-72
2021/09/13 06:14:11;;;;;;;18.08;13.48;;;;;;;16.39;100.00;101103.88;4974213;28;20244;-72
2021/09/13 06:16:42;;;;;;;17.33;12.57;;;;;;;16.33;100.00;101111.38;4993836;28;20217;-71
2021/09/13 06:19:10;;;;;;;21.15;12.35;;;;;;;16.39;100.00;101110.22;4974373;28;20185;-70
2021/09/13 06:21:39;;;;;;;20.63;12.73;;;;;;;16.48;100.00;101102.09;4987709;28;20716;-70
2021/09/13 06:24:07;;;;;;;14.35;11.80;;;;;;;16.37;100.00;101111.59;4978402;28;20193;-71
2021/09/13 06:26:38;;;;;;;20.33;13.38;;;;;;;16.29;100.00;101109.53;4993654;28;20225;-73
2021/09/13 06:29:05;;;;;;;16.27;12.23;;;;;;;16.29;100.00;101106.81;4993076;28;20243;-71
2021/09/13 06:31:34;;;;;;;18.70;12.80;;;;;;;16.41;100.00;101118.09;4993670;28;20663;-70
2021/09/13 06:34:05;;;;;;;18.83;12.70;;;;;;;16.71;100.00;101108.25;4995752;28;20546;-71
2021/09/13 06:36:36;;;;;;;19.88;14.15;;;;;;;16.72;100.00;101112.66;4979357;28;20303;-70
2021/09/13 06:39:02;;;;;;;19.27;13.05;;;;;;;16.44;100.00;101112.03;4993179;28;20189;-70
2021/09/13 06:41:28;;;;;;;16.02;12.65;;;;;;;16.75;100.00;101120.25;4977225;28;20249;-70
2021/09/13 06:43:58;;;;;;;17.05;12.52;;;;;;;16.69;100.00;101115.97;4993764;28;20186;-70
2021/09/13 06:46:35;;;;;;;18.35;12.23;;;;;;;17.05;100.00;101111.47;4976865;28;20283;-70
2021/09/13 06:49:04;;;;;;;16.85;11.73;;;;;;;17.00;100.00;101117.06;4993617;28;20192;-70
2021/09/13 06:51:30;;;;;;;17.35;11.65;;;;;;;17.19;100.00;101117.81;4992706;28;20237;-70
2021/09/13 06:53:55;;;;;;;16.38;11.02;;;;;;;17.20;100.00;101124.97;5009739;28;20223;-71
2021/09/13 06:56:23;;;;;;;12.90;9.77;;;;;;;17.35;100.00;101129.00;4991388;28;20225;-71
2021/09/13 06:58:49;;;;;;;15.20;10.32;;;;;;;17.26;100.00;101137.47;4974660;28;20181;-72
2021/09/13 07:01:21;;;;;;;14.40;9.38;;;;;;;17.24;100.00;101135.03;4973840;28;20253;-70
2021/09/13 07:03:49;;;;;;;15.35;9.27;;;;;;;17.45;100.00;101141.72;4979537;28;20177;-70
2021/09/13 07:06:17;;;;;;;12.55;9.13;;;;;;;17.02;100.00;101139.53;5013635;28;20304;-71
2021/09/13 07:08:43;;;;;;;9.95;8.23;;;;;;;17.20;100.00;101138.69;4994320;28;20268;-70
2021/09/13 07:11:10;;;;;;;12.90;8.18;;;;;;;17.04;100.00;101157.31;5011406;28;20247;-72
2021/09/13 07:13:36;;;;;;;10.77;7.85;;;;;;;17.19;100.00;101154.31;4970991;28;20182;-72
2021/09/13 07:16:05;;;;;;;13.73;7.43;;;;;;;17.31;100.00;101156.56;4993948;28;20707;-72
2021/09/13 07:18:30;;;;;;;12.43;8.27;;;;;;;17.44;100.00;101160.16;4966132;28;20567;-72
2021/09/13 07:20:57;;;;;;;13.52;7.13;;;;;;;17.39;100.00;101159.44;5003072;28;20248;-72
2021/09/13 07:23:22;;;;;;;9.02;7.00;;;;;;;17.36;100.00;101155.38;4992531;28;20193;-70
2021/09/13 07:25:48;;;;;;;10.00;6.07;;;;;;;17.37;100.00;101157.00;4986495;28;20221;-71
2021/09/13 07:28:14;;;;;;;9.57;6.22;;;;;;;17.89;100.00;101171.03;4975626;28;20190;-71
2021/09/13 07:30:42;;;;;;;11.85;5.85;;;;;;;17.74;100.00;101167.78;4968803;28;20218;-72
2021/09/13 07:33:07;;;;;;;9.10;5.90;;;;;;;17.89;100.00;101186.69;5003027;28;20260;-71
2021/09/13 07:35:33;;;;;;;9.88;5.57;;;;;;;18.02;100.00;101180.38;4957490;28;20222;-70
2021/09/13 07:38:01;;;;;;;8.07;5.50;;;;;;;18.07;100.00;101172.00;4991953;28;20197;-71
2021/09/13 07:40:29;;;;;;;11.73;5.70;;;;;;;17.87;100.00;101186.19;5000304;28;20290;-71
2021/09/13 07:42:57;;;;;;;9.00;5.03;;;;;;;17.87;100.00;101186.19;4969038;28;20233;-70
2021/09/13 07:45:24;;;;;;;10.15;5.13;;;;;;;17.89;100.00;101186.69;4974872;28;20186;-71
2021/09/13 07:47:51;;;;;;;9.02;4.82;;;;;;;18.14;100.00;101190.56;4957097;28;20675;-71
2021/09/13 07:50:18;;;;;;;8.52;4.43;;;;;;;18.32;100.00;101195.09;5015093;28;20534;-71
2021/09/13 07:52:44;;;;;;;7.80;4.38;;;;;;;18.09;100.00;101200.03;4992453;28;20198;-71
2021/09/13 07:55:13;;;;;;;6.25;3.60;;;;;;;18.11;100.00;101195.06;4974931;28;20568;-71
2021/09/13 07:57:42;;;;;;;9.77;3.95;;;;;;;17.93;100.00;101201.44;4973817;28;20197;-72
2021/09/13 08:00:09;;;;;;;7.22;3.47;;;;;;;17.83;100.00;101193.44;4990192;28;20188;-72
2021/09/13 08:02:43;;;;;;;8.52;2.50;;;;;;;17.92;100.00;101191.59;4959222;28;20647;-71
2021/09/13 08:05:11;;;;;;;6.35;2.28;;;;;;;18.19;100.00;101186.91;4991731;28;20190;-71
2021/09/13 08:07:36;;;;;;;4.43;1.92;;;;;;;18.51;100.00;101190.25;5000588;28;20206;-70
2021/09/13 08:10:05;;;;;;;5.68;2.38;;;;;;;18.43;100.00;101199.25;4961309;28;20307;-74
2021/09/13 08:12:33;;;;;;;8.23;2.20;;;;;;;18.53;100.00;101196.25;4992163;28;20217;-70
2021/09/13 08:15:01;;;;;;;5.43;1.73;;;;;;;18.83;100.00;101192.75;4992982;28;20189;-71
2021/09/13 08:17:29;;;;;;;7.30;1.67;;;;;;;19.02;100.00;101197.78;4991955;28;20229;-71
2021/09/13 08:19:56;;;;;;;4.05;1.27;;;;;;;19.03;100.00;101199.44;4991424;28;20181;-70
2021/09/13 08:22:24;;;;;;;3.00;1.30;;;;;;;18.51;100.00;101212.25;5007402;28;20330;-71
2021/09/13 08:24:51;;;;;;;5.68;1.40;;;;;;;18.49;100.00;101220.00;4983488;28;20651;-71
2021/09/13 08:27:34;;;;;;;4.13;1.40;;;;;;;18.50;100.00;101224.41;4987254;28;20587;-70
2021/09/13 08:30:02;;;;;;;5.35;1.63;;;;;;;18.55;100.00;101227.03;4983786;28;20198;-71
2021/09/13 08:32:30;;;;;;;5.82;1.73;;;;;;;18.33;100.00;101228.91;4991371;28;20217;-71
2021/09/13 08:34:56;;;;;;;6.63;1.70;;;;;;;18.44;100.00;101227.56;4968843;28;20205;-71
2021/09/13 08:37:21;;;;;;;4.25;1.27;;;;;;;18.53;100.00;101238.38;4974950;28;20703;-71
2021/09/13 08:39:49;;;;;;;5.90;1.58;;;;;;;18.73;100.00;101237.88;4990754;28;20197;-71
2021/09/13 08:42:15;;;;;;;3.30;1.30;;;;;;;18.63;100.00;101240.06;4964870;28;20731;-71
2021/09/13 08:44:47;;;;;;;3.53;1.30;;;;;;;18.85;100.00;101237.34;4995839;28;20189;-71
2021/09/13 08:47:19;;;;;;;5.35;1.60;;;;;;;18.93;100.00;101246.47;4990978;28;20364;-70
2021/09/13 08:49:47;;;;;;;5.22;1.50;;;;;;;19.13;100.00;101242.44;5003783;28;20733;-71
2021/09/13 08:52:13;;;;;;;7.90;1.52;;;;;;;19.25;100.00;101246.25;4974737;28;20222;-71
2021/09/13 08:54:39;;;;;;;4.00;1.60;;;;;;;19.23;100.00;101253.19;4988675;28;20178;-71
2021/09/13 08:57:06;;;;;;;2.38;1.20;;;;;;;19.30;100.00;101254.34;4972807;28;20234;-70
2021/09/13 08:59:36;;;;;;;5.55;1.58;;;;;;;19.39;100.00;101252.47;4944606;28;20197;-71
2021/09/13 09:02:04;;;;;;;4.15;1.30;;;;;;;19.29;100.00;101261.81;4974403;28;20233;-70
2021/09/13 09:04:32;;;;;;;7.65;2.00;;;;;;;19.24;100.00;101257.56;4992031;28;20277;-71
2021/09/13 09:07:07;;;;;;;2.75;1.10;;;;;;;19.00;100.00;101257.09;4991117;28;20217;-72
2021/09/13 09:09:33;;;;;;;4.60;1.30;;;;;;;19.39;100.00;101256.03;4990571;28;20189;-71
2021/09/13 09:12:09;;;;;;;4.32;1.20;;;;;;;19.42;100.00;101254.63;5006889;28;20529;-71
2021/09/13 09:14:40;;;;;;;3.00;1.10;;;;;;;19.57;100.00;101259.72;4991406;28;20193;-71
2021/09/13 09:17:08;;;;;;;4.78;1.10;;;;;;;19.45;100.00;101263.06;5006682;28;20217;-70
2021/09/13 09:19:36;;;;;;;2.70;0.85;;;;;;;19.51;100.00;101261.00;4991681;28;20260;-71
2021/09/13 09:22:27;;;;;;;4.72;0.82;;;;;;;19.35;100.00;101274.34;4984473;28;20269;-70
2021/09/13 09:24:53;;;;;;;2.25;1.05;;;;;;;19.21;100.00;101278.31;4967979;28;20281;-71
2021/09/13 09:27:21;;;;;;;3.20;0.90;;;;;;;18.99;100.00;101267.28;4968397;28;20224;-72
2021/09/13 09:29:49;;;;;;;2.97;1.00;;;;;;;19.43;100.00;101267.25;4987786;28;20326;-70
2021/09/13 09:32:24;;;;;;;4.07;1.05;;;;;;;19.02;100.00;101269.41;4968377;28;20232;-71
2021/09/13 09:34:50;;;;;;;3.88;0.90;;;;;;;19.48;100.00;101272.63;5000433;28;20573;-70
2021/09/13 09:37:16;;;;;;;4.78;1.20;;;;;;;19.37;100.00;101266.56;5006683;28;20233;-70
2021/09/13 09:39:49;;;;;;;3.72;1.10;;;;;;;19.33;100.00;101267.53;4989874;28;20192;-72
2021/09/13 09:42:38;;;;;;;2.75;1.25;;;;;;;19.71;100.00;101275.84;4968535;28;20222;-70
2021/09/13 09:45:19;;;;;;;2.35;1.15;;;;;;;19.78;100.00;101267.94;4973755;28;20269;-73
2021/09/13 09:48:09;;;;;;;5.07;0.90;;;;;;;19.55;100.00;101273.00;4989699;28;20228;-71
2021/09/13 09:50:37;;;;;;;3.33;0.90;;;;;;;19.49;100.00;101266.81;4987653;28;20221;-71
2021/09/13 09:53:19;;;;;;;5.57;1.38;;;;;;;19.37;100.00;101274.03;4973252;28;20236;-70
2021/09/13 09:55:53;;;;;;;3.53;1.00;;;;;;;19.46;100.00;101280.41;4973667;28;20232;-70
2021/09/13 09:58:19;;;;;;;2.78;0.95;;;;;;;19.50;100.00;101275.88;4968940;28;20563;-71
2021/09/13 10:00:49;;;;;;;2.75;0.98;;;;;;;19.30;100.00;101281.91;4977615;28;20284;-71
2021/09/13 10:03:29;;;;;;;5.55;1.55;;;;;;;19.56;100.00;101275.44;4985225;28;20193;-70
2021/09/13 10:06:01;;;;;;;3.83;1.20;;;;;;;19.66;100.00;101282.63;4970006;28;20221;-73
2021/09/13 10:08:29;;;;;;;3.80;0.90;;;;;;;19.93;100.00;101281.34;5000490;28;20583;-72
2021/09/13 10:10:57;;;;;;;3.38;1.08;;;;;;;19.82;100.00;101281.94;4950332;28;20658;-72
2021/09/13 10:13:22;;;;;;;3.20;1.05;;;;;;;19.90;100.00;101270.94;4972976;28;20224;-71
2021/09/13 10:15:53;;;;;;;3.15;0.90;;;;;;;19.89;100.00;101274.84;4985061;28;20229;-71
2021/09/13 10:18:21;;;;;;;4.82;1.00;;;;;;;19.96;100.00;101274.34;4974127;28;20202;-72
2021/09/13 10:20:49;;;;;;;2.83;0.77;;;;;;;20.03;100.00;101264.47;4982844;28;20300;-72
2021/09/13 10:23:15;;;;;;;6.03;1.15;;;;;;;20.37;100.00;101272.88;4991096;28;20182;-70
2021/09/13 10:25:43;;;;;;;5.95;1.08;;;;;;;20.59;100.00;101263.31;4971032;28;20691;-70
2021/09/13 10:28:10;;;;;;;3.67;0.90;;;;;;;20.36;100.00;101268.47;4988430;28;20197;-71
2021/09/13 10:30:52;;;;;;;2.03;0.75;;;;;;;20.31;98.16;101266.69;4988008;28;20233;-71
2021/09/13 10:33:18;;;;;;;3.53;0.80;;;;;;;20.08;99.32;101264.34;4988788;28;20185;-71
2021/09/13 10:36:01;;;;;;;2.45;0.95;;;;;;;20.10;100.00;101260.13;4989418;28;20714;-73
2021/09/13 10:38:55;;;;;;;4.75;1.00;;;;;;;19.64;100.00;101276.63;5007690;28;20570;-71
2021/09/13 10:41:55;;;;;;;4.10;0.95;;;;;;;19.20;100.00;101278.63;5004212;28;20292;-71
2021/09/13 10:44:36;;;;;;;2.63;0.90;;;;;;;18.89;100.00;101280.44;4975153;28;20193;-70
2021/09/13 10:47:06;;;;;;;3.67;0.82;;;;;;;18.88;100.00;101273.31;4991221;28;20214;-71
2021/09/13 10:49:32;;;;;;;4.07;1.00;;;;;;;18.78;100.00;101278.25;4974317;28;20268;-72
2021/09/13 10:52:29;;;;;;;3.08;0.90;;;;;;;19.00;100.00;101279.13;5005971;28;20771;-71
2021/09/13 10:55:10;;;;;;;2.92;0.88;;;;;;;18.83;100.00;101264.34;4991559;28;20174;-70
2021/09/13 10:57:56;;;;;;;1.77;0.98;;;;;;;19.11;100.00;101272.22;4989731;28;20210;-71
2021/09/13 11:00:37;;;;;;;2.45;1.00;;;;;;;19.10;100.00;101259.56;4989465;28;20192;-71
2021/09/13 11:03:18;;;;;;;4.32;0.98;;;;;;;19.43;100.00;101258.97;4992939;28;20280;-71
2021/09/13 11:05:46;;;;;;;3.42;0.88;;;;;;;19.62;100.00;101262.34;4993054;28;20213;-70
2021/09/13 11:08:27;;;;;;;4.03;0.90;;;;;;;19.87;100.00;101257.78;4976692;28;20196;-70
2021/09/13 11:10:54;;;;;;;4.00;1.13;;;;;;;19.76;100.00;101261.09;4992300;28;20233;-70
2021/09/13 11:13:20;;;;;;;3.28;0.90;;;;;;;20.00;100.00;101264.31;4994493;28;20193;-71
2021/09/13 11:15:49;;;;;;;2.72;0.70;;;;;;;19.79;100.00;101257.72;4976612;28;20263;-70
2021/09/13 11:18:41;;;;;;;6.13;1.20;;;;;;;20.16;99.69;101258.03;4973016;28;20273;-72
2021/09/13 11:21:26;;;;;;;4.68;1.20;;;;;;;20.05;99.11;101256.69;4986413;28;20217;-72
2021/09/13 11:23:58;;;;;;;3.33;0.70;;;;;;;20.09;98.26;101264.03;4973497;28;20185;-72
2021/09/13 11:26:37;;;;;;;3.47;0.80;;;;;;;20.36;95.43;101268.47;4992580;28;20216;-72
2021/09/13 11:29:06;;;;;;;1.83;0.60;;;;;;;20.53;92.83;101261.88;4972455;28;20190;-72
2021/09/13 11:31:35;;;;;;;3.25;0.73;;;;;;;20.28;95.57;101263.75;4973001;28;20218;-72
2021/09/13 11:34:19;;;;;;;1.13;0.60;;;;;;;20.31;94.13;101260.34;4974852;28;20664;-72